createdAt,value
2023-01-08T00:00:05.535Z,100285.44
2023-01-08T00:02:32.030Z,100284.63
2023-01-08T00:04:58.482Z,100276.91
2023-01-08T00:07:24.854Z,100269.94
2023-01-08T00:09:52.225Z,100267.06
2023-01-08T00:12:19.413Z,100254.69
2023-01-08T00:14:45.900Z,100267.06
2023-01-08T00:17:12.486Z,100256.72
2023-01-08T00:19:41.880Z,100256.72
2023-01-08T00:22:08.425Z,100256.38
2023-01-08T00:24:34.904Z,100260.88
2023-01-08T00:27:01.542Z,100260.56
2023-01-08T00:29:27.999Z,100256.56
2023-01-08T00:31:57.500Z,100250.22
2023-01-08T00:34:24.233Z,100250.22
2023-01-08T00:36:50.659Z,100244.03
2023-01-08T00:39:17.082Z,100245.69
2023-01-08T00:41:45.512Z,100241.34
2023-01-08T00:44:12.031Z,100226.31
2023-01-08T00:46:38.508Z,100232.50
2023-01-08T00:49:04.923Z,100224.63
2023-01-08T00:51:34.418Z,100216.13
2023-01-08T00:54:00.851Z,100208.78
2023-01-08T00:56:27.262Z,100213.63
2023-01-08T00:58:53.636Z,100213.44
2023-01-08T01:01:20.140Z,100203.09
2023-01-08T01:03:46.624Z,100217.63
2023-01-08T01:06:14.030Z,100226.97
2023-01-08T01:08:40.816Z,100231.66
2023-01-08T01:11:28.405Z,100227.34
2023-01-08T01:13:56.699Z,100226.97
2023-01-08T01:16:23.681Z,100216.63
2023-01-08T01:18:52.195Z,100230.00
2023-01-08T01:21:25.118Z,100222.59
2023-01-08T01:23:55.063Z,100226.63
2023-01-08T01:26:22.840Z,100221.44
2023-01-08T01:28:51.320Z,100220.44
2023-01-08T01:31:18.402Z,100212.44
2023-01-08T01:33:51.357Z,100210.59
2023-01-08T01:36:19.785Z,100205.91
2023-01-08T01:38:48.332Z,100201.56
2023-01-08T01:41:25.553Z,100203.44
2023-01-08T01:43:52.753Z,100207.78
2023-01-08T01:46:34.923Z,100197.25
2023-01-08T01:49:05.999Z,100210.25
2023-01-08T01:51:34.538Z,100201.06
2023-01-08T01:54:03.702Z,100195.75
2023-01-08T01:56:32.074Z,100205.94
2023-01-08T01:58:58.649Z,100203.06
2023-01-08T02:01:26.165Z,100194.88
2023-01-08T02:03:52.741Z,100194.72
2023-01-08T02:06:31.471Z,100199.59
2023-01-08T02:09:09.707Z,100193.06
2023-01-08T02:11:45.940Z,100181.53
2023-01-08T02:15:03.222Z,100192.75
2023-01-08T02:17:38.341Z,100184.22
2023-01-08T02:20:12.411Z,100186.22
2023-01-08T02:22:54.941Z,100171.50
2023-01-08T02:25:21.280Z,100187.03
2023-01-08T02:27:51.201Z,100177.84
2023-01-08T02:30:18.822Z,100167.16
2023-01-08T02:32:45.540Z,100164.13
2023-01-08T02:35:12.460Z,100155.13
2023-01-08T02:37:39.448Z,100150.25
2023-01-08T02:40:14.898Z,100146.94
2023-01-08T02:42:59.989Z,100144.44
2023-01-08T02:45:35.792Z,100148.25
2023-01-08T02:48:29.612Z,100149.09
2023-01-08T02:51:01.459Z,100134.75
2023-01-08T02:53:35.684Z,100139.09
2023-01-08T02:56:07.265Z,100148.44
2023-01-08T02:58:36.938Z,100143.41
2023-01-08T03:01:06.460Z,100133.25
2023-01-08T03:03:34.887Z,100139.41
2023-01-08T03:06:14.077Z,100149.13
2023-01-08T03:08:44.032Z,100156.97
2023-01-08T03:11:13.063Z,100164.50
2023-01-08T03:14:14.459Z,100162.31
2023-01-08T03:16:59.786Z,100165.50
2023-01-08T03:19:31.803Z,100153.94
2023-01-08T03:21:58.466Z,100159.81
2023-01-08T03:24:29.303Z,100148.75
2023-01-08T03:26:59.106Z,100149.59
2023-01-08T03:29:27.653Z,100149.72
2023-01-08T03:32:00.716Z,100161.56
2023-01-08T03:34:30.235Z,100148.38
2023-01-08T03:37:00.497Z,100151.03
2023-01-08T03:39:30.742Z,100148.22
2023-01-08T03:42:02.589Z,100148.22
2023-01-08T03:44:29.021Z,100141.50
2023-01-08T03:46:57.737Z,100144.06
2023-01-08T03:49:27.191Z,100151.56
2023-01-08T03:51:53.682Z,100139.50
2023-01-08T03:54:24.966Z,100145.53
2023-01-08T03:56:51.451Z,100150.56
2023-01-08T03:59:18.158Z,100147.41
2023-01-08T04:01:44.769Z,100143.28
2023-01-08T04:04:11.667Z,100145.94
2023-01-08T04:06:38.288Z,100148.09
2023-01-08T04:09:04.878Z,100142.41
2023-01-08T04:11:31.939Z,100126.22
2023-01-08T04:13:58.355Z,100126.38
2023-01-08T04:16:24.888Z,100132.91
2023-01-08T04:18:51.401Z,100119.84
2023-01-08T04:21:17.829Z,100121.03
2023-01-08T04:23:44.552Z,100117.53
2023-01-08T04:26:11.148Z,100109.34
2023-01-08T04:28:37.556Z,100118.03
2023-01-08T04:31:08.397Z,100116.19
2023-01-08T04:33:35.198Z,100118.34
2023-01-08T04:36:02.227Z,100112.69
2023-01-08T04:38:28.626Z,100111.84
2023-01-08T04:40:59.342Z,100104.00
2023-01-08T04:43:26.240Z,100101.31
2023-01-08T04:45:53.006Z,100095.31
2023-01-08T04:48:19.709Z,100086.59
2023-01-08T04:50:46.146Z,100096.31
2023-01-08T04:53:12.595Z,100096.81
2023-01-08T04:55:39.824Z,100085.59
2023-01-08T04:58:06.390Z,100086.28
2023-01-08T05:00:32.962Z,100085.94
2023-01-08T05:02:59.426Z,100072.75
2023-01-08T05:05:25.980Z,100080.25
2023-01-08T05:07:52.441Z,100065.56
2023-01-08T05:10:18.854Z,100070.91
2023-01-08T05:12:45.299Z,100046.53
2023-01-08T05:15:11.772Z,100074.94
2023-01-08T05:17:38.192Z,100068.59
2023-01-08T05:20:04.975Z,100074.78
2023-01-08T05:22:31.374Z,100086.47
2023-01-08T05:24:57.792Z,100071.06
2023-01-08T05:27:24.202Z,100064.56
2023-01-08T05:29:51.772Z,100070.75
2023-01-08T05:32:19.179Z,100064.25
2023-01-08T05:34:46.203Z,100074.78
2023-01-08T05:37:12.781Z,100073.25
2023-01-08T05:39:39.157Z,100070.25
2023-01-08T05:42:08.540Z,100067.56
2023-01-08T05:44:34.937Z,100073.75
2023-01-08T05:47:01.372Z,100076.44
2023-01-08T05:49:27.773Z,100072.09
2023-01-08T05:51:54.183Z,100068.59
2023-01-08T05:54:21.083Z,100074.59
2023-01-08T05:56:47.488Z,100075.75
2023-01-08T05:59:14.000Z,100063.41
2023-01-08T06:01:40.548Z,100065.91
2023-01-08T06:04:07.212Z,100073.59
2023-01-08T06:06:33.653Z,100074.59
2023-01-08T06:09:00.089Z,100060.41
2023-01-08T06:11:26.605Z,100063.88
2023-01-08T06:13:53.207Z,100057.03
2023-01-08T06:16:21.014Z,100063.38
2023-01-08T06:18:47.555Z,100061.38
2023-01-08T06:21:14.130Z,100064.38
2023-01-08T06:23:40.606Z,100064.56
2023-01-08T06:26:07.163Z,100055.34
2023-01-08T06:28:33.700Z,100062.88
2023-01-08T06:31:01.242Z,100065.56
2023-01-08T06:33:28.526Z,100065.38
2023-01-08T06:35:55.157Z,100059.22
2023-01-08T06:38:21.675Z,100059.03
2023-01-08T06:40:48.082Z,100061.72
2023-01-08T06:43:14.560Z,100051.84
2023-01-08T06:45:41.038Z,100046.84
2023-01-08T06:48:07.598Z,100057.88
2023-01-08T06:50:34.762Z,100048.03
2023-01-08T06:53:01.354Z,100048.53
2023-01-08T06:55:27.827Z,100051.88
2023-01-08T06:57:58.385Z,100054.22
2023-01-08T07:00:26.298Z,100046.53
2023-01-08T07:02:56.077Z,100050.03
2023-01-08T07:05:23.489Z,100049.69
2023-01-08T07:07:50.601Z,100035.16
2023-01-08T07:10:19.762Z,100035.16
2023-01-08T07:12:47.115Z,100043.84
2023-01-08T07:15:13.542Z,100043.19
2023-01-08T07:17:40.011Z,100046.69
2023-01-08T07:20:07.237Z,100044.19
2023-01-08T07:22:33.639Z,100042.34
2023-01-08T07:25:00.003Z,100036.50
2023-01-08T07:27:26.782Z,100023.13
2023-01-08T07:29:55.796Z,100031.16
2023-01-08T07:32:22.837Z,100035.66
2023-01-08T07:34:49.214Z,100035.81
2023-01-08T07:37:15.694Z,100034.16
2023-01-08T07:39:42.101Z,100027.63
2023-01-08T07:42:08.461Z,100031.31
2023-01-08T07:44:34.844Z,100032.16
2023-01-08T07:47:01.255Z,100031.00
2023-01-08T07:49:27.637Z,100031.00
2023-01-08T07:51:54.025Z,100033.50
2023-01-08T07:54:23.163Z,100017.28
2023-01-08T07:56:49.826Z,100018.47
2023-01-08T07:59:16.251Z,100020.13
2023-01-08T08:01:42.729Z,100022.81
2023-01-08T08:04:09.248Z,100016.28
2023-01-08T08:06:35.756Z,100010.63
2023-01-08T08:09:03.656Z,100019.47
2023-01-08T08:11:30.061Z,100008.44
2023-01-08T08:13:56.820Z,100009.09
2023-01-08T08:16:23.397Z,100010.63
2023-01-08T08:18:50.026Z,100014.28
2023-01-08T08:21:16.480Z,100010.78
2023-01-08T08:23:42.971Z,100007.09
2023-01-08T08:26:09.386Z,100007.75
2023-01-08T08:28:35.874Z,100007.09
2023-01-08T08:31:02.352Z,100004.09
2023-01-08T08:33:28.870Z,100018.78
2023-01-08T08:35:55.307Z,100006.91
2023-01-08T08:38:23.950Z,100009.44
2023-01-08T08:40:50.787Z,100014.78
2023-01-08T08:43:17.270Z,100008.44
2023-01-08T08:45:43.908Z,99999.91
2023-01-08T08:48:11.228Z,99990.22
2023-01-08T08:50:38.436Z,99998.25
2023-01-08T08:53:06.399Z,100001.75
2023-01-08T08:55:33.857Z,100016.81
2023-01-08T08:58:11.766Z,100010.44
2023-01-08T09:00:40.157Z,100023.13
2023-01-08T09:03:07.040Z,100017.13
2023-01-08T09:05:36.904Z,100015.44
2023-01-08T09:08:03.721Z,100008.94
2023-01-08T09:10:30.185Z,100011.63
2023-01-08T09:12:56.622Z,100013.28
2023-01-08T09:15:23.134Z,100006.13
2023-01-08T09:17:54.633Z,99994.06
2023-01-08T09:20:21.985Z,99996.28
2023-01-08T09:22:48.617Z,100012.59
2023-01-08T09:25:15.230Z,99994.91
2023-01-08T09:27:41.875Z,100006.13
2023-01-08T09:30:09.024Z,100022.47
2023-01-08T09:32:35.552Z,100008.28
2023-01-08T09:35:02.025Z,100012.78
2023-01-08T09:37:28.519Z,99997.25
2023-01-08T09:40:02.248Z,99983.41
2023-01-08T09:42:30.465Z,99989.22
2023-01-08T09:44:59.869Z,100001.09
2023-01-08T09:47:33.153Z,99989.59
2023-01-08T09:50:03.697Z,99998.78
2023-01-08T09:52:31.260Z,99992.44
2023-01-08T09:54:58.168Z,99985.06
2023-01-08T09:57:24.841Z,99983.38
2023-01-08T09:59:51.393Z,99985.72
2023-01-08T10:02:21.192Z,99988.09
2023-01-08T10:04:54.605Z,99980.56
2023-01-08T10:07:24.495Z,99999.09
2023-01-08T10:09:52.345Z,99993.75
2023-01-08T10:12:26.331Z,99998.94
2023-01-08T10:14:54.915Z,99998.72
2023-01-08T10:17:30.788Z,99997.72
2023-01-08T10:19:57.331Z,100000.06
2023-01-08T10:22:25.694Z,100000.75
2023-01-08T10:24:52.278Z,99991.91
2023-01-08T10:27:22.084Z,99984.03
2023-01-08T10:29:52.103Z,99989.56
2023-01-08T10:32:28.550Z,99986.88
2023-01-08T10:35:02.771Z,99974.19
2023-01-08T10:37:33.046Z,99970.00
2023-01-08T10:40:06.662Z,99966.13
2023-01-08T10:42:35.802Z,99970.66
2023-01-08T10:45:11.751Z,99965.97
2023-01-08T10:47:39.222Z,99954.28
2023-01-08T10:50:18.591Z,99950.25
2023-01-08T10:52:53.947Z,99942.72
2023-01-08T10:55:29.258Z,99954.09
2023-01-08T10:58:13.728Z,99950.59
2023-01-08T11:00:40.451Z,99964.25
2023-01-08T11:03:26.812Z,99958.91
2023-01-08T11:05:53.279Z,99964.25
2023-01-08T11:08:23.275Z,99966.75
2023-01-08T11:10:59.311Z,99963.78
2023-01-08T11:13:26.433Z,99975.97
2023-01-08T11:16:01.855Z,99968.97
2023-01-08T11:18:28.851Z,99976.97
2023-01-08T11:21:07.941Z,99973.59
2023-01-08T11:23:34.778Z,99961.78
2023-01-08T11:26:13.212Z,99962.75
2023-01-08T11:28:57.899Z,99958.56
2023-01-08T11:31:38.360Z,99954.00
2023-01-08T11:34:31.434Z,99940.09
2023-01-08T11:37:09.257Z,99947.72
2023-01-08T11:39:38.842Z,99930.81
2023-01-08T11:42:19.980Z,99935.66
2023-01-08T11:45:23.121Z,99935.81
2023-01-08T11:48:18.064Z,99923.13
2023-01-08T11:50:59.520Z,99909.66
2023-01-08T11:53:46.236Z,99913.38
2023-01-08T11:56:36.014Z,99917.72
2023-01-08T11:59:29.768Z,99917.53
2023-01-08T12:01:56.223Z,99905.34
2023-01-08T12:04:42.576Z,99907.00
2023-01-08T12:07:21.220Z,99902.44
2023-01-08T12:09:54.355Z,99906.50
2023-01-08T12:12:35.611Z,99900.06
2023-01-08T12:15:20.691Z,99907.41
2023-01-08T12:18:14.921Z,99899.31
2023-01-08T12:20:52.259Z,99901.16
2023-01-08T12:23:37.175Z,99897.38
2023-01-08T12:26:10.268Z,99890.78
2023-01-08T12:28:48.882Z,99896.16
2023-01-08T12:32:01.994Z,99889.88
2023-01-08T12:34:35.620Z,99885.31
2023-01-08T12:37:13.315Z,99886.78
2023-01-08T12:39:53.131Z,99883.91
2023-01-08T12:42:25.531Z,99876.28
2023-01-08T12:44:55.523Z,99874.94
2023-01-08T12:47:27.417Z,99876.72
2023-01-08T12:50:11.332Z,99865.72
2023-01-08T12:53:09.832Z,99870.44
2023-01-08T12:56:27.836Z,99872.09
2023-01-08T12:59:32.076Z,99868.38
2023-01-08T13:02:36.198Z,99870.06
2023-01-08T13:05:31.558Z,99860.41
2023-01-08T13:08:19.926Z,99867.97
2023-01-08T13:10:55.874Z,99858.63
2023-01-08T13:13:33.996Z,99868.44
2023-01-08T13:16:14.264Z,99854.66
2023-01-08T13:18:40.963Z,99848.97
2023-01-08T13:21:11.643Z,99836.53
2023-01-08T13:23:38.412Z,99832.84
2023-01-08T13:26:06.832Z,99839.97
2023-01-08T13:28:39.345Z,99834.09
2023-01-08T13:31:10.537Z,99825.13
2023-01-08T13:33:41.232Z,99819.19
2023-01-08T13:36:17.913Z,99825.78
2023-01-08T13:38:45.299Z,99821.13
2023-01-08T13:41:26.345Z,99812.59
2023-01-08T13:44:14.702Z,99807.25
2023-01-08T13:46:41.747Z,99813.75
2023-01-08T13:49:18.376Z,99812.81
2023-01-08T13:51:46.678Z,99806.63
2023-01-08T13:54:13.111Z,99803.09
2023-01-08T13:56:45.399Z,99807.00
2023-01-08T13:59:24.375Z,99796.19
2023-01-08T14:01:56.231Z,99796.28
2023-01-08T14:04:23.928Z,99792.25
2023-01-08T14:06:51.091Z,99787.00
2023-01-08T14:09:23.167Z,99779.97
2023-01-08T14:11:53.204Z,99790.53
2023-01-08T14:14:21.759Z,99787.19
2023-01-08T14:16:50.236Z,99786.19
2023-01-08T14:19:22.762Z,99787.19
2023-01-08T14:21:54.659Z,99797.00
2023-01-08T14:24:23.418Z,99796.50
2023-01-08T14:26:54.875Z,99790.59
2023-01-08T14:29:27.582Z,99786.28
2023-01-08T14:31:56.830Z,99793.78
2023-01-08T14:34:29.558Z,99792.41
2023-01-08T14:36:56.598Z,99794.25
2023-01-08T14:39:34.251Z,99792.44
2023-01-08T14:42:40.071Z,99799.44
2023-01-08T14:45:28.338Z,99803.72
2023-01-08T14:48:01.753Z,99791.50
2023-01-08T14:50:34.108Z,99792.56
2023-01-08T14:53:05.882Z,99797.03
2023-01-08T14:55:34.343Z,99801.59
2023-01-08T14:58:01.301Z,99780.66
2023-01-08T15:00:31.135Z,99799.72
2023-01-08T15:02:57.983Z,99799.78
2023-01-08T15:05:33.529Z,99800.34
2023-01-08T15:08:22.586Z,99795.66
2023-01-08T15:11:01.266Z,99796.34
2023-01-08T15:13:33.104Z,99787.53
2023-01-08T15:16:07.048Z,99781.56
2023-01-08T15:18:44.345Z,99785.75
2023-01-08T15:21:16.153Z,99781.97
2023-01-08T15:23:46.711Z,99779.66
2023-01-08T15:26:15.490Z,99778.16
2023-01-08T15:28:58.297Z,99774.19
2023-01-08T15:31:44.319Z,99778.22
2023-01-08T15:34:11.315Z,99772.06
2023-01-08T15:36:38.059Z,99763.41
2023-01-08T15:39:05.545Z,99770.06
2023-01-08T15:41:55.821Z,99772.91
2023-01-08T15:44:22.367Z,99765.22
2023-01-08T15:46:48.897Z,99757.69
2023-01-08T15:49:15.337Z,99761.31
2023-01-08T15:51:46.741Z,99758.47
2023-01-08T15:54:13.952Z,99749.78
2023-01-08T15:56:40.956Z,99761.41
2023-01-08T15:59:07.818Z,99747.91
2023-01-08T16:01:34.383Z,99756.53
2023-01-08T16:04:00.885Z,99764.00
2023-01-08T16:06:27.284Z,99757.66
2023-01-08T16:08:57.628Z,99758.34
2023-01-08T16:11:24.013Z,99758.50
2023-01-08T16:13:50.460Z,99754.00
2023-01-08T16:16:17.088Z,99750.66
2023-01-08T16:18:43.988Z,99746.34
2023-01-08T16:21:11.490Z,99750.66
2023-01-08T16:23:39.108Z,99748.38
2023-01-08T16:26:13.414Z,99760.69
2023-01-08T16:28:40.453Z,99756.19
2023-01-08T16:31:08.013Z,99751.72
2023-01-08T16:33:34.560Z,99749.06
2023-01-08T16:36:02.849Z,99743.72
2023-01-08T16:38:31.660Z,99747.03
2023-01-08T16:41:02.423Z,99740.56
2023-01-08T16:43:30.900Z,99742.06
2023-01-08T16:46:03.040Z,99735.28
2023-01-08T16:48:30.432Z,99731.09
2023-01-08T16:51:04.913Z,99713.66
2023-01-08T16:53:31.730Z,99723.66
2023-01-08T16:56:02.092Z,99712.19
2023-01-08T16:58:31.947Z,99716.34
2023-01-08T17:00:58.997Z,99713.69
2023-01-08T17:03:25.463Z,99715.84
2023-01-08T17:05:51.925Z,99706.72
2023-01-08T17:08:20.045Z,99709.88
2023-01-08T17:10:46.884Z,99708.41
2023-01-08T17:13:13.309Z,99714.56
2023-01-08T17:15:40.218Z,99705.91
2023-01-08T17:18:06.640Z,99705.22
2023-01-08T17:20:33.060Z,99695.75
2023-01-08T17:23:01.379Z,99699.06
2023-01-08T17:25:27.826Z,99691.03
2023-01-08T17:27:54.283Z,99697.53
2023-01-08T17:30:21.169Z,99693.53
2023-01-08T17:32:47.684Z,99688.72
2023-01-08T17:35:14.091Z,99685.84
2023-01-08T17:37:40.546Z,99693.22
2023-01-08T17:40:07.614Z,99700.38
2023-01-08T17:42:34.146Z,99696.06
2023-01-08T17:45:02.979Z,99696.22
2023-01-08T17:47:31.138Z,99697.06
2023-01-08T17:49:58.258Z,99693.91
2023-01-08T17:52:25.499Z,99684.59
2023-01-08T17:54:52.564Z,99688.09
2023-01-08T17:57:21.049Z,99686.91
2023-01-08T17:59:48.383Z,99671.25
2023-01-08T18:02:16.371Z,99665.78
2023-01-08T18:04:45.303Z,99682.59
2023-01-08T18:07:11.808Z,99679.88
2023-01-08T18:09:38.507Z,99677.91
2023-01-08T18:12:05.111Z,99686.06
2023-01-08T18:14:31.616Z,99686.03
2023-01-08T18:16:58.024Z,99681.22
2023-01-08T18:19:26.084Z,99688.72
2023-01-08T18:21:52.526Z,99684.53
2023-01-08T18:24:18.988Z,99688.53
2023-01-08T18:26:46.503Z,99681.88
2023-01-08T18:29:12.982Z,99686.69
2023-01-08T18:31:39.492Z,99693.34
2023-01-08T18:34:06.063Z,99679.84
2023-01-08T18:36:32.705Z,99681.84
2023-01-08T18:39:00.124Z,99687.50
2023-01-08T18:41:45.507Z,99673.81
2023-01-08T18:44:12.052Z,99672.66
2023-01-08T18:46:38.705Z,99679.00
2023-01-08T18:49:05.339Z,99660.63
2023-01-08T18:51:32.429Z,99665.47
2023-01-08T18:53:58.881Z,99675.09
2023-01-08T18:56:36.095Z,99682.91
2023-01-08T18:59:04.854Z,99680.41
2023-01-08T19:01:32.914Z,99668.25
2023-01-08T19:03:59.709Z,99673.78
2023-01-08T19:06:26.274Z,99686.56
2023-01-08T19:08:56.192Z,99686.03
2023-01-08T19:11:23.986Z,99669.38
2023-01-08T19:13:55.677Z,99680.03
2023-01-08T19:16:22.525Z,99679.66
2023-01-08T19:18:50.151Z,99684.84
2023-01-08T19:21:19.060Z,99684.97
2023-01-08T19:23:47.238Z,99688.63
2023-01-08T19:26:14.563Z,99687.56
2023-01-08T19:28:42.053Z,99676.25
2023-01-08T19:31:12.172Z,99667.94
2023-01-08T19:33:38.876Z,99666.56
2023-01-08T19:36:12.495Z,99665.22
2023-01-08T19:38:40.179Z,99657.53
2023-01-08T19:41:27.409Z,99669.66
2023-01-08T19:43:55.031Z,99672.78
2023-01-08T19:46:22.015Z,99669.25
2023-01-08T19:48:48.812Z,99655.28
2023-01-08T19:51:15.353Z,99670.25
2023-01-08T19:53:41.932Z,99669.72
2023-01-08T19:56:11.564Z,99663.19
2023-01-08T19:58:38.105Z,99659.84
2023-01-08T20:01:13.142Z,99661.03
2023-01-08T20:03:40.288Z,99653.94
2023-01-08T20:06:12.338Z,99649.94
2023-01-08T20:08:38.811Z,99649.72
2023-01-08T20:11:10.303Z,99642.22
2023-01-08T20:13:37.186Z,99635.56
2023-01-08T20:16:05.802Z,99623.88
2023-01-08T20:18:32.752Z,99637.69
2023-01-08T20:21:11.607Z,99630.84
2023-01-08T20:23:38.822Z,99636.63
2023-01-08T20:26:08.045Z,99632.44
2023-01-08T20:28:36.550Z,99630.97
2023-01-08T20:31:13.914Z,99622.81
2023-01-08T20:33:42.357Z,99620.47
2023-01-08T20:36:11.180Z,99610.84
2023-01-08T20:38:37.623Z,99619.50
2023-01-08T20:41:06.539Z,99616.84
2023-01-08T20:43:34.904Z,99608.09
2023-01-08T20:46:02.141Z,99617.81
2023-01-08T20:48:32.067Z,99615.47
2023-01-08T20:51:03.866Z,99606.22
2023-01-08T20:53:31.282Z,99609.72
2023-01-08T20:56:02.357Z,99610.53
2023-01-08T20:58:28.735Z,99601.06
2023-01-08T21:00:55.213Z,99602.09
2023-01-08T21:03:21.643Z,99609.22
2023-01-08T21:05:48.189Z,99597.06
2023-01-08T21:08:14.575Z,99591.13
2023-01-08T21:10:40.947Z,99594.91
2023-01-08T21:13:07.444Z,99592.84
2023-01-08T21:15:37.037Z,99594.97
2023-01-08T21:18:03.680Z,99584.69
2023-01-08T21:20:30.175Z,99589.31
2023-01-08T21:22:57.728Z,99582.50
2023-01-08T21:25:24.108Z,99581.13
2023-01-08T21:27:50.531Z,99586.72
2023-01-08T21:30:17.339Z,99570.59
2023-01-08T21:32:43.718Z,99577.19
2023-01-08T21:35:10.147Z,99566.88
2023-01-08T21:37:37.225Z,99570.16
2023-01-08T21:40:04.951Z,99567.03
2023-01-08T21:42:50.023Z,99564.06
2023-01-08T21:45:25.164Z,99563.63
2023-01-08T21:47:53.049Z,99552.84
2023-01-08T21:50:20.383Z,99550.69
2023-01-08T21:53:05.376Z,99543.41
2023-01-08T21:55:33.531Z,99536.13
2023-01-08T21:58:00.113Z,99531.66
2023-01-08T22:00:28.369Z,99520.84
2023-01-08T22:02:55.131Z,99527.66
2023-01-08T22:05:21.731Z,99508.03
2023-01-08T22:07:48.147Z,99513.72
2023-01-08T22:10:14.733Z,99522.66
2023-01-08T22:12:41.991Z,99509.53
2023-01-08T22:15:09.966Z,99499.09
2023-01-08T22:17:36.448Z,99504.69
2023-01-08T22:20:06.651Z,99501.34
2023-01-08T22:22:33.041Z,99492.78
2023-01-08T22:24:59.445Z,99491.38
2023-01-08T22:27:25.920Z,99495.63
2023-01-08T22:29:52.436Z,99493.41
2023-01-08T22:32:18.885Z,99495.56
2023-01-08T22:34:45.325Z,99480.56
2023-01-08T22:37:11.812Z,99483.06
2023-01-08T22:39:38.257Z,99469.09
2023-01-08T22:42:06.748Z,99470.38
2023-01-08T22:44:33.246Z,99469.72
2023-01-08T22:47:02.420Z,99467.38
2023-01-08T22:49:29.139Z,99464.88
2023-01-08T22:51:56.810Z,99459.88
2023-01-08T22:54:23.197Z,99462.69
2023-01-08T22:56:49.610Z,99467.28
2023-01-08T22:59:16.084Z,99462.47
2023-01-08T23:01:42.598Z,99464.28
2023-01-08T23:04:09.967Z,99471.56
2023-01-08T23:06:36.436Z,99468.38
2023-01-08T23:09:03.012Z,99463.22
2023-01-08T23:11:29.869Z,99463.91
2023-01-08T23:13:56.475Z,99460.56
2023-01-08T23:16:25.163Z,99451.78
2023-01-08T23:18:53.674Z,99453.28
2023-01-08T23:21:22.732Z,99449.97
2023-01-08T23:23:49.208Z,99444.25
2023-01-08T23:26:21.586Z,99443.00
2023-01-08T23:28:49.737Z,99441.31
2023-01-08T23:31:19.549Z,99438.66
2023-01-08T23:33:46.018Z,99435.47
2023-01-08T23:36:18.143Z,99433.00
2023-01-08T23:38:46.235Z,99436.78
2023-01-08T23:41:13.047Z,99424.97
2023-01-08T23:43:39.849Z,99428.31
2023-01-08T23:46:06.921Z,99423.97
2023-01-08T23:48:33.925Z,99416.47
2023-01-08T23:51:00.760Z,99402.88
2023-01-08T23:53:28.217Z,99407.19
2023-01-08T23:55:54.693Z,99408.31
2023-01-08T23:58:21.546Z,99403.44
